Time;durP1;ratioP1;P1;durP2;ratioP2;P2;SDS_P1;SDS_P2;PMS_P1;PMS_P2;Temp;Humidity;BMP_temperature;BMP_pressure;BME280_temperature;BME280_humidity;BME280_pressure;Samples;Min_cycle;Max_cycle;Signal;HPM_P1;HPM_P2
2022/06/14 00:01:17;;;;;;;3.53;2.40;;;;;;;13.06;80.01;99946.19;5074797;28;20067;-79
2022/06/14 00:03:44;;;;;;;4.80;2.35;;;;;;;13.03;80.33;99945.50;5092973;28;20035;-79
2022/06/14 00:06:16;;;;;;;2.58;2.00;;;;;;;12.92;80.51;99935.59;5074581;28;20020;-79
2022/06/14 00:08:42;;;;;;;3.10;2.40;;;;;;;12.91;80.34;99944.38;5093371;28;20081;-79
2022/06/14 00:11:19;;;;;;;4.53;2.38;;;;;;;12.89;80.69;99952.31;5093176;28;20028;-79
2022/06/14 00:13:45;;;;;;;2.75;2.10;;;;;;;12.87;81.04;99953.28;5092970;28;20482;-79
2022/06/14 00:16:12;;;;;;;4.35;2.42;;;;;;;12.84;81.03;99958.66;5092653;28;20111;-79
2022/06/14 00:18:38;;;;;;;4.10;2.28;;;;;;;12.83;81.12;99956.97;5074576;28;20028;-79
2022/06/14 00:21:04;;;;;;;4.13;2.65;;;;;;;12.80;81.34;99951.91;5074446;28;20027;-79
2022/06/14 00:23:30;;;;;;;4.60;2.40;;;;;;;12.69;81.66;99952.47;5092953;28;20077;-79
2022/06/14 00:25:58;;;;;;;3.60;2.00;;;;;;;12.72;82.08;99963.63;5074610;28;20540;-79
2022/06/14 00:28:25;;;;;;;3.72;1.90;;;;;;;12.67;82.39;99960.34;5074547;28;20038;-79
2022/06/14 00:30:56;;;;;;;2.35;2.15;;;;;;;12.64;82.84;99963.16;5092635;28;20051;-79
2022/06/14 00:33:22;;;;;;;2.13;1.90;;;;;;;12.58;83.36;99954.75;5092521;28;20028;-79
2022/06/14 00:35:47;;;;;;;2.03;1.80;;;;;;;12.60;83.79;99964.22;5093066;28;20028;-79
2022/06/14 00:38:14;;;;;;;3.08;2.40;;;;;;;12.57;83.88;99966.13;5092444;28;20403;-79
2022/06/14 00:40:48;;;;;;;3.13;1.95;;;;;;;12.56;83.67;99975.75;5074420;28;20058;-79
2022/06/14 00:43:16;;;;;;;2.63;1.90;;;;;;;12.52;84.35;99975.97;5092128;28;20032;-79
2022/06/14 00:45:41;;;;;;;4.30;2.10;;;;;;;12.49;84.68;99976.97;5092409;28;20043;-79
2022/06/14 00:48:13;;;;;;;2.55;1.98;;;;;;;12.40;85.15;99974.81;5092024;28;20024;-79
2022/06/14 00:50:47;;;;;;;2.00;1.80;;;;;;;12.39;85.71;99980.97;5092306;28;20380;-79
2022/06/14 00:53:19;;;;;;;2.88;1.80;;;;;;;12.35;86.13;99977.66;5073980;28;20032;-79
2022/06/14 00:55:48;;;;;;;2.35;1.90;;;;;;;12.26;86.52;99972.84;5092297;28;20427;-79
2022/06/14 00:58:28;;;;;;;2.35;1.83;;;;;;;12.29;87.14;99979.69;5073834;28;20472;-79
2022/06/14 01:01:03;;;;;;;2.15;1.95;;;;;;;12.28;87.30;99986.69;5092025;28;20051;-79
2022/06/14 01:03:41;;;;;;;1.95;1.70;;;;;;;12.23;87.54;99988.69;5074143;28;20040;-79
2022/06/14 01:06:11;;;;;;;2.15;1.80;;;;;;;12.20;88.08;99981.81;5092014;28;20085;-79
2022/06/14 01:08:45;;;;;;;3.53;1.88;;;;;;;12.14;88.33;99982.13;5091998;28;20031;-79
2022/06/14 01:11:21;;;;;;;4.68;2.05;;;;;;;12.14;88.19;99982.13;5092282;28;20029;-79
2022/06/14 01:13:47;;;;;;;3.35;1.85;;;;;;;12.08;88.55;99976.34;5092196;28;20053;-79
2022/06/14 01:16:13;;;;;;;2.72;2.28;;;;;;;12.08;88.64;99985.03;5092186;28;20115;-78
2022/06/14 01:18:39;;;;;;;2.35;2.03;;;;;;;12.05;88.83;99989.53;5092022;28;20356;-79
2022/06/14 01:21:05;;;;;;;2.72;1.77;;;;;;;11.98;89.53;99986.38;5073572;28;20072;-79
2022/06/14 01:23:31;;;;;;;3.95;1.98;;;;;;;11.85;90.55;99980.06;5092160;28;20024;-79
2022/06/14 01:26:14;;;;;;;1.95;1.80;;;;;;;11.84;90.98;99994.00;5092161;28;20050;-79
2022/06/14 01:28:43;;;;;;;2.53;1.90;;;;;;;11.80;91.07;100003.72;5091915;28;20028;-79
2022/06/14 01:31:08;;;;;;;2.25;2.05;;;;;;;11.75;91.20;100000.44;5048777;28;20041;-79
2022/06/14 01:33:43;;;;;;;2.00;1.70;;;;;;;11.69;91.97;100001.59;5032401;28;20546;-79
2022/06/14 01:36:24;;;;;;;2.40;2.00;;;;;;;11.68;92.25;100015.56;5048894;28;20590;-79
2022/06/14 01:38:50;;;;;;;2.83;2.25;;;;;;;11.63;93.77;100014.06;5032481;28;20480;-79
2022/06/14 01:41:36;;;;;;;3.97;1.90;;;;;;;11.57;93.44;100023.00;5032049;28;20057;-79
2022/06/14 01:44:24;;;;;;;2.72;1.90;;;;;;;11.51;94.35;100019.84;5048576;28;20566;-79
2022/06/14 01:47:00;;;;;;;4.35;1.88;;;;;;;11.44;94.55;100016.66;5032305;28;20040;-79
2022/06/14 01:52:38;;;;;;;4.20;1.90;;;;;;;11.34;95.22;100029.25;5049067;28;20036;-79
2022/06/14 01:55:28;;;;;;;2.15;1.83;;;;;;;11.29;95.49;100015.56;5048699;28;20029;-79
2022/06/14 01:58:10;;;;;;;3.05;2.00;;;;;;;11.21;95.77;100021.13;5032262;28;20037;-79
2022/06/14 02:00:48;;;;;;;2.67;2.22;;;;;;;11.16;96.57;100017.84;5049281;28;20075;-78
2022/06/14 02:06:31;;;;;;;2.35;2.10;;;;;;;11.05;97.95;100021.84;5091426;28;20051;-78
2022/06/14 02:09:16;;;;;;;2.30;2.08;;;;;;;10.93;98.99;100013.63;5091572;28;20028;-79
2022/06/14 02:11:42;;;;;;;2.47;2.00;;;;;;;10.95;98.96;100027.41;5091839;28;20459;-79
2022/06/14 02:14:24;;;;;;;4.80;1.98;;;;;;;10.91;99.49;100028.50;5093409;28;20035;-78
2022/06/14 02:17:07;;;;;;;2.35;2.15;;;;;;;10.82;99.24;100020.19;5095302;28;20028;-79
2022/06/14 02:19:40;;;;;;;2.53;2.10;;;;;;;10.78;100.00;100021.22;5095366;28;20168;-79
2022/06/14 02:22:14;;;;;;;4.20;2.22;;;;;;;10.77;100.00;100036.00;5076808;28;20105;-79
2022/06/14 02:24:48;;;;;;;3.05;1.90;;;;;;;10.72;100.00;100041.41;5095218;28;20115;-79
2022/06/14 02:27:22;;;;;;;4.75;2.35;;;;;;;10.69;100.00;100045.91;5076751;28;20035;-79
2022/06/14 02:29:55;;;;;;;2.10;1.90;;;;;;;10.65;100.00;100041.72;5094772;28;20030;-79
2022/06/14 02:32:27;;;;;;;2.25;2.05;;;;;;;10.63;100.00;100047.00;5076728;28;20058;-79
2022/06/14 02:35:02;;;;;;;3.92;2.25;;;;;;;10.60;100.00;100043.69;5094965;28;20472;-78
2022/06/14 02:37:37;;;;;;;3.92;2.30;;;;;;;10.52;100.00;100028.34;5094715;28;20107;-78
2022/06/14 02:40:15;;;;;;;3.30;2.50;;;;;;;10.57;100.00;100043.78;5094824;28;20020;-79
2022/06/14 02:42:49;;;;;;;2.35;2.15;;;;;;;10.54;100.00;100050.00;5076458;28;20020;-78
2022/06/14 02:45:27;;;;;;;3.15;2.15;;;;;;;10.44;100.00;100033.88;5094644;28;20028;-79
2022/06/14 02:48:18;;;;;;;2.97;2.28;;;;;;;10.48;100.00;100047.63;5094746;28;20047;-79
2022/06/14 02:51:00;;;;;;;2.83;2.30;;;;;;;10.43;100.00;100044.34;5076375;28;20050;-79
2022/06/14 02:54:15;;;;;;;3.25;2.10;;;;;;;10.44;100.00;100064.25;5094498;28;20085;-79
2022/06/14 02:56:44;;;;;;;2.22;2.03;;;;;;;10.45;100.00;100068.59;4992115;28;20437;-79
2022/06/14 02:59:21;;;;;;;3.50;2.30;;;;;;;10.37;100.00;100050.66;4992261;28;20077;-79
2022/06/14 03:01:57;;;;;;;3.28;2.10;;;;;;;10.41;100.00;100065.25;4992488;28;20061;-79
2022/06/14 03:04:36;;;;;;;3.55;2.40;;;;;;;10.38;100.00;100059.31;4992012;28;20116;-79
2022/06/14 03:07:18;;;;;;;2.95;2.50;;;;;;;10.43;100.00;100071.25;4992495;28;20042;-79
2022/06/14 03:09:46;;;;;;;5.25;2.15;;;;;;;10.48;100.00;100071.91;4992161;28;20490;-78
2022/06/14 03:12:58;;;;;;;3.80;2.22;;;;;;;10.54;100.00;100059.56;4975640;28;20029;-79
2022/06/14 03:15:29;;;;;;;3.63;2.45;;;;;;;10.67;100.00;100072.03;4933931;29;20419;-79
2022/06/14 03:18:09;;;;;;;2.47;2.28;;;;;;;10.78;100.00;100079.41;4934141;29;20054;-79
2022/06/14 03:20:49;;;;;;;3.55;2.30;;;;;;;10.86;100.00;100081.69;4934146;29;20047;-79
2022/06/14 03:23:28;;;;;;;2.88;2.17;;;;;;;10.86;100.00;100077.31;4934070;29;20042;-79
2022/06/14 03:26:14;;;;;;;3.78;2.42;;;;;;;10.94;100.00;100084.84;4933769;29;20212;-79
2022/06/14 03:28:45;;;;;;;3.60;2.90;;;;;;;10.93;100.00;100089.19;4896263;29;20044;-79
2022/06/14 03:31:18;;;;;;;4.25;2.80;;;;;;;10.95;100.00;100087.38;4895908;29;20049;-79
2022/06/14 03:34:03;;;;;;;7.13;3.42;;;;;;;11.00;100.00;100089.81;4965225;28;20514;-79
2022/06/14 03:36:29;;;;;;;4.70;3.13;;;;;;;11.13;100.00;100097.97;4972013;28;20483;-79
2022/06/14 03:38:59;;;;;;;3.97;2.70;;;;;;;11.11;100.00;100081.53;4955975;28;20042;-79
2022/06/14 03:41:31;;;;;;;3.00;2.60;;;;;;;11.23;100.00;100100.09;4972094;28;20042;-79
2022/06/14 03:43:59;;;;;;;4.50;2.85;;;;;;;11.35;100.00;100097.91;4972028;28;20073;-79
2022/06/14 03:46:32;;;;;;;5.80;3.28;;;;;;;11.44;100.00;100100.13;4955673;28;20494;-79
2022/06/14 03:49:08;;;;;;;3.45;3.00;;;;;;;11.46;100.00;100106.97;4971880;28;20045;-79
2022/06/14 03:51:58;;;;;;;5.72;3.40;;;;;;;11.52;100.00;100116.28;4985272;28;20049;-79
2022/06/14 03:54:56;;;;;;;6.30;3.60;;;;;;;11.54;100.00;100113.59;5030431;28;20072;-79
2022/06/14 03:57:56;;;;;;;5.18;3.05;;;;;;;11.57;100.00;100113.47;5030546;28;20029;-79
2022/06/14 04:00:36;;;;;;;3.10;2.75;;;;;;;11.60;100.00;100113.34;4971772;28;20391;-79
2022/06/14 04:03:42;;;;;;;5.78;3.20;;;;;;;11.61;100.00;100108.06;4955641;28;20039;-79
2022/06/14 04:06:22;;;;;;;3.90;3.30;;;;;;;11.67;99.94;100115.63;4984294;28;20042;-79
2022/06/14 04:09:06;;;;;;;5.32;3.50;;;;;;;11.73;99.65;100114.50;4991155;28;20053;-79
2022/06/14 04:11:37;;;;;;;8.30;3.70;;;;;;;11.74;99.29;100116.19;4990883;28;20042;-79
2022/06/14 04:14:41;;;;;;;7.97;4.13;;;;;;;11.81;99.01;100117.63;4990961;28;20092;-79
2022/06/14 04:17:56;;;;;;;6.00;3.63;;;;;;;11.89;98.09;100120.78;4952210;29;20086;-79
2022/06/14 04:20:31;;;;;;;8.38;3.75;;;;;;;12.18;98.41;100121.25;4952195;29;20083;-79
2022/06/14 04:23:12;;;;;;;5.65;3.80;;;;;;;12.53;96.71;100109.16;4952088;29;20074;-79
2022/06/14 04:25:43;;;;;;;4.80;3.35;;;;;;;12.71;95.24;100110.03;4952244;29;20035;-79
2022/06/14 04:28:25;;;;;;;5.10;3.45;;;;;;;13.21;93.75;100102.31;4949421;29;20451;-79
2022/06/14 04:30:58;;;;;;;6.15;4.00;;;;;;;15.37;86.36;100111.53;4952477;29;20063;-79
2022/06/14 04:33:37;;;;;;;3.85;3.17;;;;;;;16.36;77.98;100094.13;4957557;28;20031;-78
2022/06/14 04:36:26;;;;;;;5.72;3.67;;;;;;;16.19;76.89;100099.59;4993641;28;20069;-79
2022/06/14 04:39:20;;;;;;;6.15;3.40;;;;;;;16.41;76.90;100105.19;4993399;28;20557;-78
2022/06/14 04:41:56;;;;;;;6.53;3.00;;;;;;;16.71;75.70;100097.09;5010232;28;20516;-79
2022/06/14 04:44:29;;;;;;;4.05;2.97;;;;;;;17.31;73.30;100102.88;5009873;28;20525;-79
2022/06/14 04:47:07;;;;;;;3.78;2.88;;;;;;;18.52;68.77;100103.19;5010228;28;20536;-78
2022/06/14 04:49:46;;;;;;;7.80;3.20;;;;;;;20.44;60.38;100089.44;4993346;28;20069;-79
2022/06/14 04:52:34;;;;;;;3.33;2.65;;;;;;;20.83;56.61;100101.25;5010126;28;20045;-79
2022/06/14 04:55:08;;;;;;;4.53;2.70;;;;;;;19.76;57.62;100106.31;5006804;28;20038;-79
2022/06/14 04:57:43;;;;;;;5.22;2.95;;;;;;;18.62;61.53;100106.00;5026157;28;20084;-79
2022/06/14 05:00:15;;;;;;;3.63;2.42;;;;;;;18.31;63.88;100095.03;4993424;28;20049;-79
2022/06/14 05:02:53;;;;;;;3.80;2.80;;;;;;;18.02;64.99;100091.81;5009926;28;20559;-79
2022/06/14 05:05:29;;;;;;;4.15;2.40;;;;;;;18.38;66.22;100092.81;5009574;28;20053;-79
2022/06/14 05:08:23;;;;;;;5.85;2.47;;;;;;;19.27;64.16;100100.31;5009979;28;20177;-79
2022/06/14 05:11:05;;;;;;;2.92;2.30;;;;;;;20.44;59.72;100097.38;4992086;28;20485;-79
2022/06/14 05:13:41;;;;;;;6.07;2.63;;;;;;;22.82;53.11;100096.50;5009598;28;20061;-79
2022/06/14 05:16:18;;;;;;;3.72;2.20;;;;;;;25.04;46.00;100092.19;5009778;28;20557;-79
2022/06/14 05:19:08;;;;;;;4.50;2.00;;;;;;;26.41;41.41;100113.69;5009662;28;20049;-79
2022/06/14 05:21:58;;;;;;;4.10;2.15;;;;;;;25.84;41.29;100100.13;5009581;28;20034;-79
2022/06/14 05:24:24;;;;;;;;;;;;;;;24.70;43.97;100105.38;5010015;28;20100;-79
2022/06/14 05:26:49;;;;;;;2.08;1.60;;;;;;;24.11;45.94;100106.66;5009770;28;19987;-80
2022/06/14 05:29:37;;;;;;;3.85;2.00;;;;;;;23.86;46.36;100101.03;5009577;28;20519;-79
2022/06/14 05:32:29;;;;;;;2.35;1.90;;;;;;;23.82;46.43;100088.16;5051627;28;20067;-79
2022/06/14 05:35:15;;;;;;;3.10;1.85;;;;;;;24.66;45.07;100100.50;5091907;28;20093;-80
2022/06/14 05:37:55;;;;;;;4.85;2.80;;;;;;;26.75;40.24;100089.59;5090809;28;20078;-80
2022/06/14 05:40:28;;;;;;;2.47;1.60;;;;;;;27.25;37.86;100103.84;5091744;28;20028;-80
2022/06/14 05:43:00;;;;;;;2.90;1.80;;;;;;;26.62;38.32;100100.75;5090577;28;20528;-80
2022/06/14 05:45:28;;;;;;;2.30;1.73;;;;;;;25.95;40.23;100096.31;5091598;28;20024;-80
2022/06/14 05:48:06;;;;;;;2.42;1.52;;;;;;;25.52;41.29;100103.41;5093551;28;20107;-80
2022/06/14 05:50:39;;;;;;;3.15;1.90;;;;;;;25.37;41.88;100098.66;5095911;28;20024;-80
2022/06/14 05:53:10;;;;;;;3.47;1.70;;;;;;;25.18;42.56;100101.47;5095901;28;20028;-80
2022/06/14 05:55:47;;;;;;;3.10;1.50;;;;;;;25.05;42.04;100109.00;5095771;28;20028;-80
2022/06/14 05:58:30;;;;;;;4.82;1.42;;;;;;;25.01;42.42;100112.97;5095579;28;20077;-80
2022/06/14 06:00:58;;;;;;;2.45;1.65;;;;;;;24.76;43.13;100115.41;5095780;28;20020;-80
2022/06/14 06:03:33;;;;;;;3.83;1.60;;;;;;;24.76;43.50;100107.41;5095366;28;20036;-80
2022/06/14 06:06:30;;;;;;;2.97;1.50;;;;;;;24.99;42.47;100115.81;5095239;28;20094;-80
2022/06/14 06:09:19;;;;;;;1.95;1.38;;;;;;;25.36;42.33;100099.59;4993648;28;20538;-80
2022/06/14 06:11:51;;;;;;;5.50;1.77;;;;;;;25.61;41.46;100102.44;4976597;28;20053;-80
2022/06/14 06:15:01;;;;;;;3.83;1.63;;;;;;;25.64;41.97;100110.13;4993305;28;20555;-80
2022/06/14 06:18:03;;;;;;;4.88;1.67;;;;;;;25.97;41.13;100115.69;4935121;29;20036;-80
2022/06/14 06:20:57;;;;;;;4.18;2.20;;;;;;;26.48;40.43;100116.59;4862889;29;20418;-80
2022/06/14 06:23:44;;;;;;;4.15;1.50;;;;;;;26.68;39.40;100107.28;4859698;29;20050;-80
2022/06/14 06:26:12;;;;;;;3.38;1.60;;;;;;;26.74;39.30;100103.94;4860133;29;20042;-81
2022/06/14 06:28:45;;;;;;;3.05;1.70;;;;;;;28.23;37.07;100108.97;4859724;29;20046;-80
2022/06/14 06:31:20;;;;;;;2.55;1.70;;;;;;;31.58;31.87;100099.88;4860237;29;20041;-80
2022/06/14 06:33:52;;;;;;;2.92;1.70;;;;;;;34.75;26.13;100110.00;4860098;29;20045;-81
2022/06/14 06:36:39;;;;;;;1.40;1.17;;;;;;;37.79;23.03;100102.88;4859813;29;20068;-81
2022/06/14 06:39:43;;;;;;;1.98;1.63;;;;;;;40.52;19.34;100114.19;4859874;29;20049;-81
2022/06/14 06:42:15;;;;;;;3.45;1.80;;;;;;;41.76;17.58;100107.56;4859358;29;20037;-81
2022/06/14 06:44:53;;;;;;;3.50;1.70;;;;;;;43.42;15.69;100103.75;4864977;29;20108;-81
2022/06/14 06:47:30;;;;;;;2.25;1.48;;;;;;;44.66;14.55;100104.88;4919076;29;20099;-81
2022/06/14 06:50:16;;;;;;;4.85;2.00;;;;;;;45.75;13.68;100096.94;4934740;29;20110;-81
2022/06/14 06:53:01;;;;;;;3.20;1.48;;;;;;;46.73;13.07;100097.25;4934512;29;20403;-82
2022/06/14 06:55:44;;;;;;;5.00;1.92;;;;;;;46.00;12.58;100103.28;4960272;28;20048;-82
2022/06/14 06:58:24;;;;;;;2.60;1.70;;;;;;;43.41;14.79;100093.88;5031024;28;20029;-81
2022/06/14 07:00:53;;;;;;;3.17;1.50;;;;;;;43.03;14.22;100098.84;5075814;28;20036;-82
2022/06/14 07:03:31;;;;;;;4.28;1.80;;;;;;;39.87;16.32;100081.25;5093348;28;20058;-81
2022/06/14 07:06:01;;;;;;;3.58;1.70;;;;;;;41.35;15.87;100090.88;5073460;28;20044;-81
2022/06/14 07:08:45;;;;;;;3.83;1.60;;;;;;;40.40;15.45;100084.31;5093955;28;20375;-82
2022/06/14 07:11:16;;;;;;;3.70;1.63;;;;;;;37.85;17.99;100086.47;5094228;28;20031;-81
2022/06/14 07:14:07;;;;;;;3.60;1.70;;;;;;;35.60;20.38;100090.59;5093684;28;20027;-81
2022/06/14 07:16:38;;;;;;;4.03;2.10;;;;;;;33.90;22.28;100084.19;5090346;28;20505;-81
2022/06/14 07:19:26;;;;;;;2.67;1.80;;;;;;;33.15;22.96;100075.56;5093514;28;20027;-81
2022/06/14 07:22:12;;;;;;;4.65;1.48;;;;;;;30.53;25.30;100085.25;5094029;28;20177;-81
2022/06/14 07:24:54;;;;;;;3.95;1.70;;;;;;;28.41;28.62;100087.31;5075553;28;20115;-81
2022/06/14 07:27:24;;;;;;;2.95;1.65;;;;;;;26.87;31.39;100082.91;5075569;28;20049;-80
2022/06/14 07:30:07;;;;;;;4.28;1.80;;;;;;;25.50;33.60;100086.72;5092542;28;20020;-80
2022/06/14 07:32:40;;;;;;;2.53;1.50;;;;;;;26.42;33.89;100078.00;5089653;28;20020;-80
2022/06/14 07:35:06;;;;;;;3.95;1.50;;;;;;;31.75;26.33;100085.06;5074404;28;20043;-80
2022/06/14 07:37:42;;;;;;;4.15;1.70;;;;;;;34.78;22.22;100083.56;5092163;28;20028;-80
2022/06/14 07:40:26;;;;;;;4.47;1.88;;;;;;;38.09;18.63;100076.34;5075318;28;20117;-80
2022/06/14 07:43:17;;;;;;;2.80;1.70;;;;;;;39.86;16.71;100082.31;5093786;28;20031;-81
2022/06/14 07:45:47;;;;;;;3.63;1.60;;;;;;;39.26;16.11;100080.38;5092724;28;20108;-80
2022/06/14 07:48:18;;;;;;;3.13;1.75;;;;;;;35.56;19.16;100075.84;5093458;28;20093;-80
2022/06/14 07:50:59;;;;;;;3.30;1.55;;;;;;;31.82;23.30;100071.66;5074958;28;20085;-79
2022/06/14 07:53:47;;;;;;;8.98;2.13;;;;;;;29.48;26.89;100089.00;5093321;28;20055;-80
2022/06/14 07:56:49;;;;;;;4.93;1.80;;;;;;;28.56;28.53;100093.56;5093234;28;20444;-79
2022/06/14 07:59:20;;;;;;;3.63;1.65;;;;;;;29.26;28.33;100081.84;4991311;28;20053;-79
2022/06/14 08:01:56;;;;;;;3.95;1.70;;;;;;;32.60;24.38;100091.06;4991123;28;20038;-79
2022/06/14 08:04:45;;;;;;;3.30;1.55;;;;;;;31.53;24.12;100079.75;4974801;28;20062;-79
2022/06/14 08:07:17;;;;;;;2.80;1.60;;;;;;;28.80;26.61;100084.53;4990953;28;20038;-79
2022/06/14 08:10:00;;;;;;;2.88;1.70;;;;;;;30.51;25.49;100084.63;4974531;28;20062;-79
2022/06/14 08:12:48;;;;;;;2.88;1.70;;;;;;;33.99;21.03;100093.75;4990995;28;20026;-79
2022/06/14 08:15:20;;;;;;;1.95;1.38;;;;;;;32.88;21.64;100086.31;4991143;28;20050;-79
2022/06/14 08:17:54;;;;;;;6.35;1.70;;;;;;;30.94;23.43;100085.47;4990845;28;20612;-79
2022/06/14 08:20:32;;;;;;;4.00;1.52;;;;;;;29.20;25.80;100080.72;4974573;28;20034;-80
2022/06/14 08:23:01;;;;;;;6.53;1.67;;;;;;;27.87;28.06;100076.50;4952039;29;20075;-80
2022/06/14 08:25:32;;;;;;;3.63;1.80;;;;;;;26.52;29.08;100059.16;4951995;29;20067;-80
2022/06/14 08:28:10;;;;;;;5.22;2.00;;;;;;;25.24;30.85;100084.88;4936084;29;20106;-79
2022/06/14 08:30:40;;;;;;;4.68;1.90;;;;;;;24.66;33.02;100089.84;4951701;29;20432;-79
2022/06/14 08:33:08;;;;;;;;;;;;;;;24.28;34.17;100089.91;4952514;29;20102;-80
2022/06/14 08:35:44;;;;;;;4.25;1.77;;;;;;;24.01;34.87;100065.94;5016223;28;19912;-80
2022/06/14 08:38:19;;;;;;;1.85;1.30;;;;;;;23.96;33.73;100086.84;5030053;28;20551;-80
2022/06/14 08:41:10;;;;;;;3.40;1.50;;;;;;;23.92;33.66;100080.97;5013134;28;20036;-80
2022/06/14 08:43:43;;;;;;;1.63;1.52;;;;;;;23.94;33.04;100091.47;5029192;28;20447;-80
2022/06/14 08:46:11;;;;;;;3.67;1.65;;;;;;;23.76;33.25;100096.72;5029981;28;20033;-79
2022/06/14 08:48:43;;;;;;;2.83;1.77;;;;;;;23.13;33.20;100087.47;5029660;28;20159;-79
2022/06/14 08:51:12;;;;;;;3.35;1.48;;;;;;;22.69;33.88;100085.31;5029818;28;20033;-79
2022/06/14 08:54:05;;;;;;;3.17;1.50;;;;;;;22.66;33.58;100092.56;5051954;28;20040;-79
2022/06/14 08:57:04;;;;;;;2.88;1.40;;;;;;;22.76;34.98;100094.44;5092096;28;20059;-79
2022/06/14 08:59:41;;;;;;;4.18;1.20;;;;;;;22.83;34.87;100095.53;5092009;28;20032;-79
2022/06/14 09:02:16;;;;;;;3.67;1.50;;;;;;;22.85;34.64;100082.97;5092362;28;20024;-79
2022/06/14 09:05:18;;;;;;;3.25;1.20;;;;;;;22.96;35.13;100074.88;5091852;28;20044;-79
2022/06/14 09:08:19;;;;;;;3.08;1.58;;;;;;;23.02;35.06;100092.91;5091950;28;20027;-79
2022/06/14 09:10:54;;;;;;;3.20;1.50;;;;;;;22.86;34.02;100079.31;4990035;28;20057;-79
2022/06/14 09:13:28;;;;;;;3.25;1.38;;;;;;;22.67;33.49;100080.16;4990270;28;20169;-79
2022/06/14 09:16:04;;;;;;;2.53;1.40;;;;;;;22.55;34.40;100087.41;4990179;28;20065;-79
2022/06/14 09:18:53;;;;;;;3.08;1.70;;;;;;;22.32;34.10;100078.84;4973851;28;20433;-79
2022/06/14 09:21:31;;;;;;;3.65;1.50;;;;;;;22.20;35.98;100082.56;4990080;28;20437;-79
2022/06/14 09:24:27;;;;;;;2.85;1.73;;;;;;;22.15;36.01;100088.28;4990173;28;20474;-79
2022/06/14 09:27:04;;;;;;;3.33;1.30;;;;;;;22.14;36.76;100085.78;4973666;28;20038;-79
2022/06/14 09:29:54;;;;;;;1.77;1.48;;;;;;;22.05;36.59;100086.56;4989944;28;20043;-79
2022/06/14 09:32:31;;;;;;;3.38;1.50;;;;;;;22.25;36.93;100083.03;4990099;28;20114;-79
2022/06/14 09:35:35;;;;;;;4.45;1.55;;;;;;;22.60;36.43;100087.84;4989919;28;20037;-79
2022/06/14 09:38:33;;;;;;;3.42;1.50;;;;;;;22.56;35.28;100089.09;4932486;29;20058;-79
2022/06/14 09:41:25;;;;;;;2.70;1.50;;;;;;;22.63;35.86;100087.56;4932122;29;20477;-79
2022/06/14 09:44:17;;;;;;;3.42;1.70;;;;;;;22.53;35.37;100089.34;4931959;29;20118;-79
2022/06/14 09:46:57;;;;;;;3.50;1.38;;;;;;;22.34;36.42;100082.22;4966260;28;20029;-79
2022/06/14 09:49:57;;;;;;;3.53;1.50;;;;;;;22.22;36.45;100098.38;5029069;28;20041;-79
2022/06/14 09:52:28;;;;;;;3.50;1.42;;;;;;;22.16;35.04;100086.47;5029207;28;20513;-79
2022/06/14 09:55:02;;;;;;;7.07;2.20;;;;;;;22.02;34.98;100085.00;5028774;28;20062;-79
2022/06/14 09:57:52;;;;;;;4.45;1.90;;;;;;;21.82;35.90;100089.38;5029125;28;20556;-79
2022/06/14 10:00:31;;;;;;;3.28;1.70;;;;;;;21.68;34.78;100082.63;5012592;28;20033;-79
2022/06/14 10:03:15;;;;;;;1.77;1.33;;;;;;;21.77;34.68;100081.00;5028943;28;20056;-79
2022/06/14 10:05:43;;;;;;;3.33;1.23;;;;;;;21.96;36.01;100080.25;5028683;28;20639;-79
2022/06/14 10:08:31;;;;;;;2.13;1.33;;;;;;;22.04;36.10;100090.19;5028958;28;20400;-79
2022/06/14 10:11:18;;;;;;;2.20;1.38;;;;;;;21.99;35.17;100082.59;5012446;28;20033;-79
2022/06/14 10:14:02;;;;;;;2.17;1.35;;;;;;;22.06;34.83;100083.75;5041636;28;20044;-79
2022/06/14 10:16:39;;;;;;;4.78;1.80;;;;;;;22.10;35.21;100082.50;5051267;28;20036;-79
2022/06/14 10:19:29;;;;;;;2.83;1.58;;;;;;;22.33;34.60;100087.63;5051465;28;20037;-80
2022/06/14 10:22:34;;;;;;;2.63;1.60;;;;;;;22.56;34.71;100083.78;5049855;28;20399;-80
2022/06/14 10:25:24;;;;;;;2.42;1.50;;;;;;;22.63;34.50;100065.50;5049956;28;20071;-80
2022/06/14 10:28:12;;;;;;;2.58;1.17;;;;;;;22.65;35.03;100076.78;5049864;28;20033;-80
2022/06/14 10:30:45;;;;;;;2.70;1.30;;;;;;;22.37;34.74;100092.53;5051073;28;20021;-81
2022/06/14 10:33:20;;;;;;;2.78;1.63;;;;;;;22.07;33.89;100080.13;5049765;28;20037;-80
2022/06/14 10:36:16;;;;;;;2.88;1.40;;;;;;;21.83;33.00;100088.44;5053988;28;20060;-80
2022/06/14 10:38:47;;;;;;;2.67;1.58;;;;;;;21.54;34.14;100088.28;5054561;28;20024;-80
2022/06/14 10:41:15;;;;;;;3.17;1.55;;;;;;;21.36;34.88;100071.28;5054728;28;20134;-80
2022/06/14 10:44:14;;;;;;;3.80;1.52;;;;;;;21.44;35.39;100068.81;5054367;28;20495;-80
2022/06/14 10:46:49;;;;;;;6.70;2.03;;;;;;;21.65;35.28;100064.31;5053270;28;20047;-80
2022/06/14 10:49:23;;;;;;;2.25;1.35;;;;;;;21.86;34.49;100068.75;5054413;28;20071;-80
2022/06/14 10:52:06;;;;;;;3.60;1.52;;;;;;;21.85;35.32;100067.06;5054190;28;20025;-80
2022/06/14 10:55:05;;;;;;;5.28;1.63;;;;;;;21.81;36.20;100060.34;5054617;28;20029;-80
2022/06/14 10:57:45;;;;;;;3.08;1.60;;;;;;;21.82;36.47;100065.50;5054355;28;20491;-80
2022/06/14 11:00:19;;;;;;;1.55;1.30;;;;;;;21.69;35.48;100059.59;5054291;28;20136;-80
2022/06/14 11:03:00;;;;;;;3.88;1.60;;;;;;;21.63;35.39;100060.97;5052552;28;20033;-80
2022/06/14 11:05:49;;;;;;;4.00;1.55;;;;;;;21.55;33.58;100058.16;5083384;28;20040;-80
2022/06/14 11:08:49;;;;;;;2.20;1.40;;;;;;;21.83;34.08;100056.59;5094607;28;20028;-81
2022/06/14 11:11:42;;;;;;;3.58;1.48;;;;;;;22.06;33.64;100072.31;5094339;28;20036;-80
2022/06/14 11:14:30;;;;;;;2.55;1.38;;;;;;;22.08;34.14;100059.75;5094265;28;20095;-80
2022/06/14 11:17:17;;;;;;;2.58;1.20;;;;;;;22.07;33.51;100066.03;5093859;28;20147;-80
2022/06/14 11:19:59;;;;;;;2.78;1.50;;;;;;;22.03;33.88;100069.91;5094082;28;20024;-80
2022/06/14 11:22:35;;;;;;;3.45;1.70;;;;;;;22.06;34.33;100056.41;5075863;28;20051;-80
2022/06/14 11:25:21;;;;;;;2.28;1.50;;;;;;;21.93;34.46;100062.78;5094193;28;20050;-81
2022/06/14 11:27:59;;;;;;;3.35;1.90;;;;;;;21.73;33.88;100073.44;5075850;28;20031;-81
2022/06/14 11:30:40;;;;;;;2.63;1.55;;;;;;;21.64;34.33;100065.31;5075705;28;20028;-80
2022/06/14 11:33:29;;;;;;;2.38;1.30;;;;;;;21.81;35.28;100078.91;5093789;28;20051;-80
2022/06/14 11:36:06;;;;;;;5.13;1.63;;;;;;;21.86;34.79;100069.56;5093532;28;20028;-80
2022/06/14 11:38:45;;;;;;;2.33;1.42;;;;;;;21.99;34.37;100068.50;5094210;28;20194;-80
2022/06/14 11:41:14;;;;;;;4.00;1.65;;;;;;;22.17;34.40;100049.22;5093741;28;20028;-81
2022/06/14 11:43:54;;;;;;;1.73;1.20;;;;;;;22.42;33.64;100062.94;5093398;28;20036;-80
2022/06/14 11:46:49;;;;;;;5.95;1.25;;;;;;;22.38;32.69;100058.88;5093134;28;20556;-80
2022/06/14 11:49:48;;;;;;;3.90;1.73;;;;;;;22.36;31.75;100059.00;5093482;28;20042;-81
2022/06/14 11:52:55;;;;;;;2.33;1.80;;;;;;;22.00;31.94;100060.44;5093507;28;20020;-81
2022/06/14 11:55:44;;;;;;;2.03;1.30;;;;;;;21.89;32.74;100050.75;4991500;28;20121;-81
2022/06/14 11:58:19;;;;;;;2.45;1.48;;;;;;;21.98;33.67;100048.28;4991469;28;20034;-81
2022/06/14 12:01:00;;;;;;;2.30;1.23;;;;;;;22.17;33.07;100059.81;4991056;28;20038;-81
2022/06/14 12:03:46;;;;;;;3.03;1.55;;;;;;;22.21;33.18;100057.75;4991238;28;20038;-81
2022/06/14 12:06:28;;;;;;;2.30;1.58;;;;;;;22.32;33.60;100046.16;4991376;28;20042;-81
2022/06/14 12:09:21;;;;;;;3.90;1.52;;;;;;;22.56;33.45;100054.56;4974603;28;20461;-81
2022/06/14 12:12:09;;;;;;;2.03;1.40;;;;;;;22.68;32.57;100047.31;4990914;28;20501;-80
2022/06/14 12:14:58;;;;;;;1.55;1.38;;;;;;;22.59;32.47;100048.16;4974818;28;20413;-80
2022/06/14 12:18:00;;;;;;;2.45;1.48;;;;;;;22.38;32.22;100045.63;4991028;28;20129;-80
2022/06/14 12:20:25;;;;;;;2.90;1.40;;;;;;;22.24;32.90;100048.66;4991108;28;20553;-80
2022/06/14 12:22:54;;;;;;;5.35;1.50;;;;;;;22.10;33.12;100049.84;4990661;28;20166;-80
2022/06/14 12:28:24;;;;;;;5.18;1.80;;;;;;;22.19;33.93;100056.19;4994003;28;20060;-80
2022/06/14 12:30:52;;;;;;;3.00;1.60;;;;;;;22.04;33.39;100056.53;5074671;28;20383;-80
2022/06/14 12:33:39;;;;;;;3.33;2.05;;;;;;;22.06;33.77;100054.59;5049785;28;20037;-80